CYXS - Prince George Airport

Pirep is a free, collaborative database of all public and private airports located within the United States. All pilots are welcome to contribute, edit, and improve any airport they have local knowledge about, no registration required.
Are you familiar with this airport? Help out other pilots by adding your local knowledge.
Uploaded photos will be licensed under a CC BY-SA 4.0 license. Please only upload photos you have the rights to use.
Tags
Public
Undocu­mented
METAR / TAF
Webcam
Edit Tags
Food
Camping
Lodging
Car Rental
Bicycles
Swimming
Golfing
Fishing
Hot Springs
Museum
Flying Clubs
Airpark
Upcoming Events
No upcoming events. Is anything happening here soon?
*
*
*

Where exactly on/near the airport is this event taking place?

Is there a webpage with more information for this event?

Who should be contacted for more information?

What is this event all about?

Repeat every
Description
Transient Parking
Fuel Location
Landing & Tie-down Fees
Crew Car Availability
Flying Clubs
WiFi Access
Airport Statistics
Location: Prince George, British Columbia
Elevation: 2,267ft
Runway 15/33: 11,450ft
Runway 06/24: 5,628ft
Runway 01/19: 3,769ft
Warning: This airport was imported from a non-authoritative source. It's public/private status may not be accurate.
Access: Open to the public
Current Weather — VFR
  • Weather data is strictly informational and not for flight planning purposes.
  • METAR
    2024-04-22 05:21:00 PDT
    Ceiling Wind Temperature Dewpoint Weather Visbility
    4,000ft 180° @ 9kt 35°F 28°F N/A 9SM
    Clouds: Overcast @ 4,000ft
    Raw: CYXS 221221Z AUTO 18009KT 9SM OVC040 02/M02 A3015 RMK SLP240
  • TAF
    2024-04-22 00:00:00 PDT – 2024-04-22 12:00:00 PDT
    Ceiling Wind Weather Visbility
    5,000ft 240° @ 10kt N/A 6SM
    Clouds: Broken @ 5,000ft
    Raw: TAF CYXS 220640Z 2207/2219 24010KT P6SM BKN050 TEMPO 2207/2219 P6SM -SHRA RMK FCST BASED ON AUTO OBS. NXT FCST BY 221300Z
  • TAF
    2024-04-22 00:00:00 PDT – 2024-04-22 12:00:00 PDT
    Ceiling Wind Weather Visbility
    Sky clear ° @ kt Light rain showers 6SM
    Raw: TAF CYXS 220640Z 2207/2219 24010KT P6SM BKN050 TEMPO 2207/2219 P6SM -SHRA RMK FCST BASED ON AUTO OBS. NXT FCST BY 221300Z
Click/tap to add an annotation marker to the map
Direct links to live image URLs will be displayed inline on this page. URLs to separate webpages will be linked to.
URL:
Direct links to live image URLs will be displayed inline on this page. URLs to separate webpages will be linked to.
URL:
Comments
Leave a comment What was your experience like at this airport?